createdAt,value
2023-03-03T08:47:44.992Z,34.55
2023-03-03T08:50:14.233Z,33.17
2023-03-03T08:52:42.636Z,29.02
2023-03-03T08:55:12.181Z,28.33
2023-03-03T08:57:40.987Z,29.38
2023-03-03T09:00:13.718Z,29.65
2023-03-03T09:02:42.209Z,29.60
2023-03-03T09:05:12.094Z,28.92
2023-03-03T09:07:41.071Z,30.23
2023-03-03T09:10:12.034Z,28.25
2023-03-03T09:12:43.516Z,31.80
2023-03-03T09:15:22.025Z,31.67
2023-03-03T09:17:50.521Z,29.67
2023-03-03T09:20:37.372Z,31.48
2023-03-03T09:23:35.079Z,31.60
2023-03-03T09:26:15.795Z,34.80
2023-03-03T09:28:44.116Z,31.92
2023-03-03T09:31:46.276Z,31.35
2023-03-03T09:36:45.447Z,30.02
2023-03-03T09:39:22.296Z,29.02
2023-03-03T09:42:09.609Z,30.45
2023-03-03T09:44:42.937Z,31.27
2023-03-03T09:47:49.329Z,32.25
2023-03-03T09:50:32.229Z,30.88
2023-03-03T09:53:38.480Z,25.95
2023-03-03T09:56:11.418Z,30.63
2023-03-03T09:58:45.965Z,31.80
2023-03-03T10:01:41.345Z,32.72
2023-03-03T10:04:27.872Z,31.75
2023-03-03T10:07:23.260Z,31.65
2023-03-03T10:10:03.983Z,27.70
2023-03-03T10:13:02.282Z,30.75
2023-03-03T10:15:40.578Z,29.17
2023-03-03T10:18:33.445Z,29.45
2023-03-03T10:21:07.959Z,29.17
2023-03-03T10:23:36.222Z,33.10
2023-03-03T10:26:44.402Z,32.47
2023-03-03T10:29:22.370Z,28.35
2023-03-03T10:32:10.093Z,28.00
2023-03-03T10:35:00.528Z,27.23
2023-03-03T10:37:48.202Z,27.77
2023-03-03T10:40:49.916Z,30.00
2023-03-03T10:43:31.837Z,28.98
2023-03-03T10:46:19.593Z,27.58
2023-03-03T14:26:10.996Z,23.80
2023-03-03T14:28:46.313Z,20.02
2023-03-03T14:31:40.730Z,20.60
2023-03-03T14:34:19.110Z,20.25
2023-03-03T14:36:47.392Z,20.88
2023-03-03T14:39:35.508Z,21.88
2023-03-03T14:42:15.948Z,21.98
2023-03-03T14:44:47.560Z,20.67
2023-03-03T14:47:23.191Z,21.52
2023-03-03T14:49:52.998Z,21.08
2023-03-03T14:52:29.751Z,20.83
2023-03-03T14:55:01.118Z,21.15
2023-03-03T14:57:58.551Z,20.88
2023-03-03T15:00:33.477Z,19.08
2023-03-03T15:03:17.468Z,20.05
2023-03-03T15:05:53.608Z,20.08
2023-03-03T15:08:33.353Z,20.33
2023-03-03T15:11:32.692Z,21.73
2023-03-03T15:14:16.387Z,19.83
2023-03-03T15:16:45.156Z,17.77
2023-03-03T15:19:31.289Z,18.85
2023-03-03T15:22:02.903Z,17.45
2023-03-03T15:24:47.324Z,18.98
2023-03-03T15:27:42.819Z,19.13
2023-03-03T15:30:37.726Z,18.35
2023-03-03T15:33:11.467Z,20.30
2023-03-03T15:35:55.255Z,17.55
2023-03-03T15:38:32.640Z,18.52
2023-03-03T15:41:04.796Z,19.42
2023-03-03T15:43:50.133Z,18.35
2023-03-03T15:46:33.847Z,18.23
2023-03-03T15:49:28.932Z,16.33
2023-03-03T15:52:33.304Z,18.98
2023-03-03T15:55:01.888Z,18.63
2023-03-03T15:57:57.406Z,19.85
2023-03-03T16:00:38.838Z,19.08
2023-03-03T16:03:20.606Z,19.45
2023-03-03T16:06:24.292Z,21.13
2023-03-03T16:09:11.023Z,21.00
2023-03-03T16:11:42.312Z,20.30
2023-03-03T16:14:19.048Z,19.25
2023-03-03T16:17:08.039Z,21.88
2023-03-03T16:19:41.775Z,20.17
2023-03-03T16:22:34.483Z,20.45
2023-03-03T16:25:21.017Z,19.67
2023-03-03T16:27:59.159Z,22.65
2023-03-03T16:30:45.820Z,23.00
2023-03-03T16:33:44.177Z,22.05
2023-03-03T16:36:28.716Z,23.48
2023-03-03T16:39:23.115Z,22.30
2023-03-03T16:41:57.417Z,20.95
2023-03-03T16:44:44.355Z,22.67
2023-03-03T16:47:38.084Z,21.85
2023-03-03T16:50:34.507Z,21.70
2023-03-03T16:53:17.566Z,22.40
2023-03-03T16:55:58.934Z,21.77
2023-03-03T16:58:41.742Z,21.83
2023-03-03T17:01:10.372Z,20.83
2023-03-03T17:04:01.631Z,22.80
2023-03-03T17:06:41.436Z,20.67
2023-03-03T17:09:33.660Z,18.60
2023-03-03T17:12:52.479Z,19.10
2023-03-03T17:15:42.323Z,18.98
2023-03-03T17:18:21.274Z,19.52
2023-03-03T17:21:03.612Z,19.25
2023-03-03T17:23:56.195Z,18.55
2023-03-03T17:26:59.396Z,18.90
2023-03-03T17:29:38.240Z,19.65
2023-03-03T17:32:40.421Z,18.92
2023-03-03T17:35:11.676Z,21.80
2023-03-03T17:37:58.544Z,20.27
2023-03-03T17:40:51.165Z,20.50
2023-03-03T17:43:23.815Z,19.75
2023-03-03T17:45:55.788Z,18.92
2023-03-03T17:49:01.761Z,20.20
2023-03-03T17:52:13.948Z,21.63
2023-03-03T17:55:10.260Z,24.33
2023-03-03T17:58:06.809Z,23.30
2023-03-03T18:00:59.303Z,22.50
2023-03-03T18:03:49.677Z,21.83
2023-03-03T18:06:32.919Z,20.48
2023-03-03T18:09:14.463Z,20.80
2023-03-03T18:15:08.620Z,24.48
2023-03-03T18:17:49.865Z,23.00
2023-03-03T18:20:21.069Z,24.05
2023-03-03T18:22:51.271Z,23.05
2023-03-03T18:25:26.711Z,17.55
2023-03-03T18:28:00.307Z,23.45
2023-03-03T18:30:51.519Z,21.70
2023-03-03T18:33:35.141Z,21.08
2023-03-03T18:36:38.168Z,22.90
2023-03-03T18:39:09.825Z,23.80
2023-03-03T18:42:11.117Z,24.48
2023-03-03T18:44:39.560Z,24.60
2023-03-03T18:47:08.623Z,26.17
2023-03-03T18:50:04.002Z,26.42
2023-03-03T18:52:34.931Z,24.67
2023-03-03T18:55:05.023Z,24.20
2023-03-03T18:57:33.748Z,23.13
2023-03-03T19:00:17.200Z,22.33
2023-03-03T19:02:57.075Z,23.90
2023-03-03T19:05:37.128Z,23.42
2023-03-03T19:08:22.832Z,24.70
2023-03-03T19:11:15.982Z,22.77
2023-03-03T19:13:46.896Z,25.48
2023-03-03T19:16:24.327Z,25.67
2023-03-03T19:18:52.988Z,23.88
2023-03-03T19:21:33.430Z,21.02
2023-03-03T19:24:06.996Z,23.87
2023-03-03T19:27:39.682Z,25.33
2023-03-03T19:30:37.576Z,20.30
2023-03-03T19:33:14.086Z,22.98
2023-03-03T19:36:18.716Z,22.95
2023-03-03T19:38:58.823Z,23.48
2023-03-03T19:41:52.850Z,22.67
2023-03-03T19:44:31.432Z,24.08
2023-03-03T19:47:04.409Z,26.35
2023-03-03T19:49:56.458Z,23.58
2023-03-03T19:52:33.644Z,23.23
2023-03-03T19:55:32.898Z,24.50
2023-03-03T19:58:21.188Z,19.88
2023-03-03T20:01:02.091Z,21.73
2023-03-03T20:03:45.542Z,23.85
2023-03-03T20:06:31.679Z,22.15
2023-03-03T20:09:04.290Z,24.10
2023-03-03T20:11:51.774Z,23.95
2023-03-03T20:14:46.123Z,21.42
2023-03-03T20:17:35.708Z,24.60
2023-03-03T20:20:29.425Z,23.50
2023-03-03T20:23:11.885Z,23.73
2023-03-03T20:25:53.949Z,23.45
2023-03-03T20:31:18.750Z,25.58
2023-03-03T20:33:55.873Z,22.70
2023-03-03T20:36:41.247Z,26.13
2023-03-03T20:39:32.635Z,26.15
2023-03-03T20:42:26.831Z,26.17
2023-03-03T20:45:12.835Z,28.05
2023-03-03T20:47:51.919Z,29.15
2023-03-03T20:50:26.285Z,27.55
2023-03-03T20:53:07.799Z,28.17
2023-03-03T20:55:45.701Z,29.05
2023-03-03T20:58:24.340Z,28.10
2023-03-03T21:01:09.956Z,27.20
2023-03-03T21:03:42.463Z,29.38
2023-03-03T21:06:15.530Z,27.83
2023-03-03T21:08:56.389Z,27.00
2023-03-03T21:11:33.509Z,23.75
2023-03-03T21:14:26.632Z,24.83
2023-03-03T21:16:56.948Z,25.50
2023-03-03T21:19:33.887Z,25.30
2023-03-03T21:22:02.865Z,30.67
2023-03-03T21:25:07.181Z,28.08
2023-03-03T21:27:38.954Z,25.70
2023-03-03T21:30:13.141Z,25.45
2023-03-03T21:32:43.916Z,26.55
2023-03-03T21:35:15.784Z,28.10
2023-03-03T21:40:28.309Z,29.02
2023-03-03T21:43:02.003Z,26.75
2023-03-03T21:45:30.754Z,27.35
2023-03-03T21:48:02.089Z,29.02
2023-03-03T21:50:32.905Z,28.25
2023-03-03T21:53:01.430Z,28.92
2023-03-03T21:55:30.021Z,28.77
2023-03-03T21:57:58.296Z,27.33
2023-03-03T22:00:27.014Z,27.83
2023-03-03T22:02:55.501Z,28.13
2023-03-03T22:05:24.194Z,26.70
2023-03-03T22:07:52.452Z,29.27
2023-03-03T22:10:21.055Z,28.08
2023-03-03T22:12:49.363Z,28.60
2023-03-03T22:15:18.011Z,26.73
2023-03-03T22:17:46.302Z,28.23
2023-03-03T22:20:18.010Z,25.80
2023-03-03T22:25:16.311Z,26.08
